Barons, Canada
Current Conditions -  °F | °C
As of 5:11 AM on Monday 20 Oct 2014 (Local Time) from CYQL Reporting Station
Clear Clear  
Wind Chill: 32°   Ceiling: Unl
Heat Index: 41°   Visibility: 9mi
Dew Point: 32°   Wind: 18mph
Humidity: 70%   Direction: 210°SSW
Pressure: 29.75"   Gusts: NA
Location:  49.98°N, 113.08°W
Report Text: CYQL 201111Z AUTO 21016KT 9SM CLR 05/00 A2975 RMK SLP079
Loading
Personal Weather Stations






























Interactive Weather Map
Tropical Storm Tracking
New forecast layout! Learn more

10-Day Weather Forecast

Advertisements
Track Severe Weather on mobile